createdAt,value
2018-08-03T00:00:32.708Z,100.00
2018-08-03T00:03:04.806Z,100.00
2018-08-03T00:05:36.819Z,100.00
2018-08-03T00:08:08.964Z,100.00
2018-08-03T00:10:40.986Z,100.00
2018-08-03T00:13:13.015Z,100.00
2018-08-03T00:15:45.182Z,100.00
2018-08-03T00:18:17.204Z,100.00
2018-08-03T00:20:49.206Z,100.00
2018-08-03T00:23:21.271Z,100.00
2018-08-03T00:25:53.401Z,100.00
2018-08-03T00:28:25.455Z,100.00
2018-08-03T00:30:57.498Z,100.00
2018-08-03T00:33:29.490Z,100.00
2018-08-03T00:36:01.540Z,100.00
2018-08-03T00:38:33.573Z,100.00
2018-08-03T00:41:05.572Z,100.00
2018-08-03T00:43:37.606Z,100.00
2018-08-03T00:46:09.709Z,100.00
2018-08-03T00:48:41.754Z,100.00
2018-08-03T00:51:13.767Z,100.00
2018-08-03T00:53:45.791Z,100.00
2018-08-03T00:56:17.860Z,100.00
2018-08-03T00:58:50.169Z,100.00
2018-08-03T01:01:22.198Z,100.00
2018-08-03T01:03:54.190Z,100.00
2018-08-03T01:06:26.183Z,100.00
2018-08-03T01:08:58.241Z,100.00
2018-08-03T01:11:30.223Z,100.00
2018-08-03T01:14:02.219Z,100.00
2018-08-03T01:16:39.259Z,100.00
2018-08-03T01:19:13.237Z,100.00
2018-08-03T01:21:45.282Z,100.00
2018-08-03T01:24:17.273Z,100.00
2018-08-03T01:26:49.339Z,100.00
2018-08-03T01:29:21.396Z,100.00
2018-08-03T01:31:53.406Z,100.00
2018-08-03T01:34:25.403Z,100.00
2018-08-03T01:36:57.357Z,100.00
2018-08-03T01:39:29.318Z,100.00
2018-08-03T01:42:01.319Z,100.00
2018-08-03T01:44:33.389Z,100.00
2018-08-03T01:47:05.462Z,100.00
2018-08-03T01:49:37.543Z,100.00
2018-08-03T01:52:09.552Z,100.00
2018-08-03T01:54:41.534Z,100.00
2018-08-03T01:57:13.524Z,100.00
2018-08-03T01:59:45.618Z,100.00
2018-08-03T02:02:17.710Z,100.00
2018-08-03T02:04:49.675Z,100.00
2018-08-03T02:07:21.698Z,100.00
2018-08-03T02:09:53.667Z,100.00
2018-08-03T02:12:25.784Z,100.00
2018-08-03T02:14:57.766Z,100.00
2018-08-03T02:17:29.776Z,100.00
2018-08-03T02:20:01.803Z,100.00
2018-08-03T02:22:33.846Z,100.00
2018-08-03T02:25:06.284Z,100.00
2018-08-03T02:27:38.284Z,100.00
2018-08-03T02:30:10.310Z,100.00
2018-08-03T02:32:42.366Z,100.00
2018-08-03T02:35:14.372Z,100.00
2018-08-03T02:37:46.514Z,100.00
2018-08-03T02:40:18.535Z,100.00
2018-08-03T02:42:50.765Z,100.00
2018-08-03T02:45:22.933Z,100.00
2018-08-03T02:47:55.020Z,100.00
2018-08-03T02:50:27.029Z,100.00
2018-08-03T02:52:59.033Z,100.00
2018-08-03T04:17:33.246Z,100.00
2018-08-03T04:20:05.426Z,100.00
2018-08-03T04:22:37.433Z,100.00
2018-08-03T04:25:09.440Z,100.00
2018-08-03T04:27:41.427Z,100.00
2018-08-03T04:30:13.470Z,100.00
2018-08-03T04:32:45.458Z,100.00
2018-08-03T04:35:17.475Z,100.00
2018-08-03T04:37:49.469Z,100.00
2018-08-03T04:40:21.772Z,100.00
2018-08-03T04:42:53.745Z,100.00
2018-08-03T04:45:25.800Z,100.00
2018-08-03T04:47:57.775Z,100.00
2018-08-03T04:50:29.927Z,100.00
2018-08-03T04:53:01.894Z,100.00
2018-08-03T04:55:33.904Z,100.00
2018-08-03T04:58:05.930Z,100.00
2018-08-03T05:00:37.917Z,100.00
2018-08-03T05:03:09.949Z,100.00
2018-08-03T05:05:41.946Z,99.60
2018-08-03T05:08:13.910Z,99.40
2018-08-03T05:10:45.966Z,98.12
2018-08-03T05:13:17.926Z,95.30
2018-08-03T05:15:50.520Z,95.17
2018-08-03T05:18:22.522Z,94.04
2018-08-03T05:20:54.583Z,94.04
2018-08-03T05:23:26.608Z,94.91
2018-08-03T05:25:58.657Z,95.06
2018-08-03T05:28:30.750Z,94.66
2018-08-03T05:31:02.961Z,93.14
2018-08-03T05:33:35.271Z,90.23
2018-08-03T05:36:07.327Z,84.13
2018-08-03T05:38:39.294Z,80.95
2018-08-03T05:41:11.335Z,76.96
2018-08-03T05:43:43.315Z,75.14
2018-08-03T05:46:15.392Z,71.97
2018-08-03T05:48:47.521Z,68.32
2018-08-03T05:51:19.507Z,68.47
2018-08-03T05:53:51.515Z,67.58
2018-08-03T05:56:23.505Z,64.19
2018-08-03T05:58:55.503Z,62.74
2018-08-03T06:01:27.518Z,63.66
2018-08-03T06:03:59.521Z,64.16
2018-08-03T06:06:31.549Z,64.95
2018-08-03T06:09:06.363Z,61.44
2018-08-03T06:11:38.370Z,60.39
2018-08-03T06:14:10.395Z,62.10
2018-08-03T06:16:42.392Z,61.24
2018-08-03T06:19:14.356Z,58.18
2018-08-03T06:21:46.375Z,57.89
2018-08-03T06:24:18.382Z,55.85
2018-08-03T06:26:50.375Z,55.33
2018-08-03T06:29:22.376Z,56.84
2018-08-03T06:31:54.448Z,57.56
2018-08-03T06:34:26.526Z,57.96
2018-08-03T06:36:58.560Z,58.84
2018-08-03T06:39:30.607Z,56.11
2018-08-03T06:42:02.618Z,54.70
2018-08-03T06:44:34.634Z,53.01
2018-08-03T06:47:06.638Z,50.64
2018-08-03T06:49:38.609Z,47.92
2018-08-03T06:52:10.618Z,46.85
2018-08-03T06:54:42.705Z,48.12
2018-08-03T06:57:14.674Z,50.47
2018-08-03T06:59:46.679Z,50.33
2018-08-03T07:02:19.043Z,50.76
2018-08-03T07:04:51.147Z,47.86
2018-08-03T07:07:23.255Z,48.12
2018-08-03T07:09:55.296Z,46.57
2018-08-03T07:12:27.291Z,46.31
2018-08-03T07:14:59.392Z,45.92
2018-08-03T07:17:31.445Z,47.92
2018-08-03T07:20:04.168Z,46.49
2018-08-03T07:22:36.153Z,45.34
2018-08-03T07:25:08.191Z,45.58
2018-08-03T07:27:40.287Z,45.25
2018-08-03T07:30:12.357Z,43.86
2018-08-03T07:32:44.375Z,42.12
2018-08-03T07:35:16.389Z,45.14
2018-08-03T07:37:48.415Z,44.61
2018-08-03T07:40:20.527Z,46.42
2018-08-03T07:42:52.566Z,44.83
2018-08-03T07:45:25.347Z,44.74
2018-08-03T07:47:58.282Z,46.08
2018-08-03T07:50:30.293Z,45.12
2018-08-03T07:53:02.339Z,44.38
2018-08-03T07:55:34.379Z,43.85
2018-08-03T07:58:06.393Z,44.84
2018-08-03T08:00:39.546Z,44.82
2018-08-03T08:03:11.580Z,44.31
2018-08-03T08:05:43.606Z,44.91
2018-08-03T08:08:16.597Z,43.80
2018-08-03T08:10:48.566Z,43.08
2018-08-03T08:13:20.646Z,41.93
2018-08-03T08:15:52.690Z,40.64
2018-08-03T08:18:24.678Z,41.22
2018-08-03T08:20:57.743Z,38.67
2018-08-03T08:23:29.807Z,38.76
2018-08-03T08:26:01.812Z,39.99
2018-08-03T08:28:33.843Z,39.03
2018-08-03T08:31:06.019Z,39.21
2018-08-03T08:33:38.067Z,39.72
2018-08-03T08:36:10.074Z,38.63
2018-08-03T08:38:42.091Z,37.90
2018-08-03T08:41:14.175Z,35.56
2018-08-03T08:43:46.314Z,36.26
2018-08-03T08:46:18.272Z,37.13
2018-08-03T08:48:50.339Z,33.64
2018-08-03T08:51:22.455Z,34.80
2018-08-03T08:53:54.459Z,33.74
2018-08-03T08:56:26.491Z,34.13
2018-08-03T08:58:58.551Z,33.45
2018-08-03T09:01:30.584Z,35.59
2018-08-03T09:04:02.623Z,35.25
2018-08-03T09:06:34.615Z,35.86
2018-08-03T09:09:08.886Z,33.21
2018-08-03T09:11:40.926Z,34.25
2018-08-03T09:14:12.918Z,33.14
2018-08-03T09:16:45.015Z,35.57
2018-08-03T09:19:17.043Z,38.37
2018-08-03T09:21:49.368Z,36.52
2018-08-03T09:24:21.384Z,35.29
2018-08-03T09:26:53.528Z,34.00
2018-08-03T09:29:25.536Z,34.85
2018-08-03T09:31:57.523Z,34.89
2018-08-03T09:34:29.563Z,38.79
2018-08-03T09:37:01.622Z,37.40
2018-08-03T09:39:33.699Z,35.84
2018-08-03T09:42:05.740Z,34.33
2018-08-03T09:44:37.762Z,35.12
2018-08-03T09:47:09.802Z,37.00
2018-08-03T09:49:41.827Z,35.97
2018-08-03T09:52:13.876Z,36.62
2018-08-03T09:54:45.850Z,33.42
2018-08-03T09:57:17.872Z,34.75
2018-08-03T09:59:49.896Z,35.50
2018-08-03T10:02:21.878Z,34.44
2018-08-03T10:04:53.874Z,37.25
2018-08-03T10:07:25.956Z,33.50
2018-08-03T10:09:57.942Z,34.72
2018-08-03T10:12:30.016Z,35.21
2018-08-03T10:15:02.002Z,34.05
2018-08-03T10:17:33.999Z,36.27
2018-08-03T10:20:06.047Z,33.79
2018-08-03T10:22:38.231Z,36.33
2018-08-03T10:25:10.276Z,33.01
2018-08-03T10:27:42.251Z,36.37
2018-08-03T10:30:14.299Z,35.03
2018-08-03T10:32:46.286Z,35.00
2018-08-03T10:35:18.363Z,35.56
2018-08-03T10:37:50.413Z,34.90
2018-08-03T10:40:22.504Z,33.91
2018-08-03T10:42:54.538Z,33.26
2018-08-03T10:45:26.558Z,32.32
2018-08-03T10:47:58.543Z,32.83
2018-08-03T10:50:30.866Z,33.78
2018-08-03T10:53:04.176Z,37.05
2018-08-03T10:55:36.284Z,34.67
2018-08-03T10:58:08.379Z,34.89
2018-08-03T11:00:41.527Z,34.17
2018-08-03T11:03:13.535Z,33.74
2018-08-03T11:05:45.598Z,32.09
2018-08-03T11:08:17.591Z,31.48
2018-08-03T11:10:49.663Z,33.08
2018-08-03T11:13:21.707Z,35.38
2018-08-03T11:15:53.724Z,33.05
2018-08-03T11:18:25.771Z,32.80
2018-08-03T11:20:57.796Z,32.34
2018-08-03T11:23:29.802Z,32.78
2018-08-03T11:26:01.819Z,33.05
2018-08-03T11:28:33.872Z,31.74
2018-08-03T11:31:05.946Z,31.35
2018-08-03T11:33:37.980Z,30.88
2018-08-03T11:36:10.043Z,30.81
2018-08-03T11:38:42.101Z,28.62
2018-08-03T11:41:14.163Z,30.58
2018-08-03T11:43:46.224Z,30.25
2018-08-03T11:46:18.287Z,29.46
2018-08-03T11:48:50.327Z,29.14
2018-08-03T11:51:22.339Z,29.04
2018-08-03T11:53:54.332Z,28.73
2018-08-03T11:56:26.395Z,28.24
2018-08-03T11:58:58.408Z,28.53
2018-08-03T12:01:30.503Z,28.35
2018-08-03T12:04:02.551Z,29.61
2018-08-03T12:06:34.686Z,29.65
2018-08-03T12:09:07.042Z,28.95
2018-08-03T12:11:39.093Z,28.01
2018-08-03T12:14:11.158Z,26.12
2018-08-03T12:16:43.182Z,26.00
2018-08-03T12:19:15.185Z,27.73
2018-08-03T12:21:47.175Z,27.30
2018-08-03T12:24:19.179Z,25.87
2018-08-03T12:26:51.314Z,24.74
2018-08-03T12:29:23.395Z,25.33
2018-08-03T12:31:55.489Z,26.81
2018-08-03T12:34:27.495Z,26.45
2018-08-03T12:36:59.583Z,26.17
2018-08-03T12:39:31.548Z,24.34
2018-08-03T12:42:03.561Z,23.32
2018-08-03T12:44:35.566Z,25.65
2018-08-03T12:47:07.661Z,28.79
2018-08-03T12:49:39.770Z,30.71
2018-08-03T12:52:11.824Z,28.84
2018-08-03T12:54:43.851Z,28.38
2018-08-03T12:57:15.876Z,26.62
2018-08-03T12:59:47.956Z,27.36
2018-08-03T13:02:20.068Z,24.81
2018-08-03T13:04:52.063Z,23.48
2018-08-03T13:07:24.203Z,24.72
2018-08-03T13:09:56.099Z,27.23
2018-08-03T13:12:28.300Z,27.12
2018-08-03T13:15:00.468Z,26.67
2018-08-03T13:17:32.451Z,22.55
2018-08-03T13:20:04.832Z,22.52
2018-08-03T13:22:36.977Z,22.13
2018-08-03T13:25:09.075Z,21.85
2018-08-03T13:27:41.122Z,24.19
2018-08-03T13:30:13.159Z,22.50
2018-08-03T13:32:45.246Z,25.04
2018-08-03T13:35:17.415Z,24.51
2018-08-03T13:37:51.003Z,23.51
2018-08-03T13:40:23.211Z,24.04
2018-08-03T13:42:55.232Z,24.31
2018-08-03T13:45:27.274Z,26.83
2018-08-03T13:47:59.330Z,29.42
2018-08-03T13:50:31.319Z,31.90
2018-08-03T13:53:03.488Z,33.78
2018-08-03T13:55:36.056Z,33.52
2018-08-03T13:58:08.112Z,31.23
2018-08-03T14:00:40.133Z,29.55
2018-08-03T14:03:12.167Z,26.61
2018-08-03T14:05:44.218Z,26.90
2018-08-03T14:08:16.325Z,26.74
2018-08-03T14:10:48.334Z,25.97
2018-08-03T14:13:20.382Z,24.14
2018-08-03T14:15:52.526Z,25.33
2018-08-03T14:18:24.543Z,23.54
2018-08-03T14:20:56.552Z,26.37
2018-08-03T14:23:28.590Z,26.78
2018-08-03T14:26:00.655Z,28.05
2018-08-03T14:28:32.699Z,26.67
2018-08-03T14:31:04.731Z,26.71
2018-08-03T14:33:36.752Z,26.86
2018-08-03T14:36:08.770Z,26.44
2018-08-03T14:38:40.863Z,25.86
2018-08-03T14:41:12.929Z,25.41
2018-08-03T14:43:45.006Z,25.33
2018-08-03T14:46:17.061Z,25.86
2018-08-03T14:48:49.077Z,23.91
2018-08-03T14:51:21.083Z,25.99
2018-08-03T14:53:54.191Z,24.85
2018-08-03T14:56:26.392Z,24.08
2018-08-03T14:58:58.463Z,24.31
2018-08-03T15:01:30.578Z,24.38
2018-08-03T15:04:02.641Z,26.64
2018-08-03T15:06:34.714Z,27.58
2018-08-03T15:09:07.955Z,27.72
2018-08-03T15:11:40.145Z,25.45
2018-08-03T15:14:12.150Z,22.57
2018-08-03T15:16:44.138Z,22.51
2018-08-03T15:19:16.146Z,25.84
2018-08-03T15:21:48.195Z,24.89
2018-08-03T15:24:20.232Z,24.08
2018-08-03T15:26:52.259Z,24.13
2018-08-03T15:29:24.313Z,24.98
2018-08-03T15:31:56.332Z,26.52
2018-08-03T15:34:28.364Z,28.50
2018-08-03T15:37:00.351Z,28.68
2018-08-03T15:39:32.500Z,31.12
2018-08-03T15:42:04.636Z,29.53
2018-08-03T15:44:36.704Z,30.22
2018-08-03T15:47:08.691Z,28.68
2018-08-03T15:49:40.706Z,29.78
2018-08-03T15:52:12.754Z,29.58
2018-08-03T15:54:44.814Z,30.08
2018-08-03T15:57:16.844Z,28.03
2018-08-03T15:59:48.918Z,28.41
2018-08-03T16:02:20.955Z,27.61
2018-08-03T16:04:52.974Z,26.45
2018-08-03T16:07:24.989Z,25.36
2018-08-03T16:09:57.051Z,25.90
2018-08-03T16:12:29.083Z,25.49
2018-08-03T16:15:01.099Z,24.93
2018-08-03T16:17:33.143Z,25.20
2018-08-03T16:20:05.259Z,23.89
2018-08-03T16:22:37.271Z,23.69
2018-08-03T16:25:09.357Z,25.84
2018-08-03T16:27:41.440Z,25.49
2018-08-03T16:30:13.496Z,26.94
2018-08-03T16:32:45.645Z,28.27
2018-08-03T16:35:17.642Z,26.12
2018-08-03T16:37:49.683Z,26.84
2018-08-03T16:40:21.746Z,27.36
2018-08-03T16:42:53.791Z,28.64
2018-08-03T16:45:25.931Z,29.56
2018-08-03T16:47:57.930Z,30.56
2018-08-03T16:50:30.030Z,29.36
2018-08-03T16:53:02.090Z,30.88
2018-08-03T16:55:34.134Z,31.85
2018-08-03T16:58:06.195Z,34.76
2018-08-03T17:00:38.195Z,31.92
2018-08-03T17:03:10.512Z,31.70
2018-08-03T17:05:42.610Z,33.88
2018-08-03T17:08:14.708Z,32.49
2018-08-03T17:10:46.926Z,33.31
2018-08-03T17:13:19.047Z,32.85
2018-08-03T17:15:51.439Z,32.71
2018-08-03T17:18:23.462Z,32.59
2018-08-03T17:20:55.632Z,35.01
2018-08-03T17:23:27.643Z,34.03
2018-08-03T17:25:59.678Z,35.90
2018-08-03T17:28:31.697Z,36.44
2018-08-03T17:31:03.791Z,36.01
2018-08-03T17:33:35.950Z,36.58
2018-08-03T17:36:07.971Z,37.32
2018-08-03T17:38:40.306Z,37.10
2018-08-03T17:41:13.126Z,37.36
2018-08-03T17:43:45.164Z,36.65
2018-08-03T17:46:17.235Z,36.53
2018-08-03T17:48:49.551Z,36.92
2018-08-03T17:51:21.618Z,36.25
2018-08-03T17:53:53.623Z,39.16
2018-08-03T17:56:25.681Z,39.84
2018-08-03T17:58:57.811Z,41.22
2018-08-03T18:01:29.984Z,43.52
2018-08-03T18:04:02.042Z,44.97
2018-08-03T18:06:34.058Z,46.08
2018-08-03T18:09:06.215Z,45.63
2018-08-03T18:11:38.279Z,46.53
2018-08-03T18:14:10.283Z,47.26
2018-08-03T18:16:42.386Z,47.38
2018-08-03T18:19:14.428Z,48.12
2018-08-03T18:21:46.538Z,48.12
2018-08-03T18:24:18.529Z,49.04
2018-08-03T18:26:50.619Z,49.39
2018-08-03T18:29:22.748Z,50.26
2018-08-03T18:31:54.721Z,50.37
2018-08-03T18:34:26.763Z,50.21
2018-08-03T18:36:58.809Z,50.39
2018-08-03T18:39:30.823Z,51.77
2018-08-03T18:42:02.848Z,51.01
2018-08-03T18:44:34.911Z,52.28
2018-08-03T18:47:06.922Z,51.95
2018-08-03T18:49:38.905Z,53.81
2018-08-03T18:52:10.961Z,53.46
2018-08-03T18:54:42.973Z,54.29
2018-08-03T18:57:14.979Z,53.90
2018-08-03T18:59:47.046Z,54.62
2018-08-03T19:02:19.111Z,54.41
2018-08-03T19:04:51.132Z,56.45
2018-08-03T19:07:23.141Z,56.29
2018-08-03T19:09:55.220Z,57.35
2018-08-03T19:12:27.275Z,57.85
2018-08-03T19:14:59.338Z,57.28
2018-08-03T19:17:31.334Z,57.75
2018-08-03T19:20:04.014Z,56.71
2018-08-03T19:22:36.184Z,56.38
2018-08-03T19:25:08.427Z,57.01
2018-08-03T19:27:40.449Z,55.35
2018-08-03T19:30:12.619Z,56.21
2018-08-03T19:32:44.702Z,57.38
2018-08-03T19:35:16.818Z,57.28
2018-08-03T19:37:49.031Z,58.54
2018-08-03T19:40:21.028Z,58.67
2018-08-03T19:42:53.189Z,57.87
2018-08-03T19:45:25.239Z,57.21
2018-08-03T19:47:57.313Z,57.62
2018-08-03T19:50:29.313Z,58.58
2018-08-03T19:53:01.456Z,58.82
2018-08-03T19:55:33.475Z,57.97
2018-08-03T20:00:55.610Z,57.69
2018-08-03T20:03:27.879Z,57.35
2018-08-03T20:05:59.956Z,57.40
2018-08-03T20:08:32.097Z,58.04
2018-08-03T20:11:04.188Z,58.40
2018-08-03T20:13:36.382Z,59.48
2018-08-03T20:16:08.473Z,60.94
2018-08-03T20:18:40.626Z,60.16
2018-08-03T20:21:12.769Z,60.77
2018-08-03T20:23:44.972Z,60.27
2018-08-03T20:26:17.126Z,59.78
2018-08-03T20:28:49.234Z,59.03
2018-08-03T20:31:21.719Z,59.39
2018-08-03T20:33:53.807Z,59.40
2018-08-03T20:36:25.947Z,59.47
2018-08-03T20:38:58.077Z,58.31
2018-08-03T20:41:30.193Z,58.52
2018-08-03T20:44:02.277Z,57.77
2018-08-03T20:46:34.375Z,58.21
2018-08-03T20:49:06.571Z,59.55
2018-08-03T20:51:38.664Z,59.46
2018-08-03T20:54:10.728Z,59.24
2018-08-03T20:56:42.825Z,60.77
2018-08-03T20:59:14.905Z,60.94
2018-08-03T21:01:47.059Z,60.70
2018-08-03T21:04:19.138Z,60.99
2018-08-03T21:06:51.255Z,61.35
2018-08-03T21:09:23.325Z,61.15
2018-08-03T21:11:55.382Z,60.69
2018-08-03T21:14:28.473Z,61.00
2018-08-03T21:17:00.577Z,61.41
2018-08-03T21:19:32.684Z,62.77
2018-08-03T21:22:04.808Z,62.46
2018-08-03T21:24:37.549Z,62.35
2018-08-03T21:27:09.647Z,62.34
2018-08-03T21:29:41.729Z,62.23
2018-08-03T21:32:13.827Z,61.33
2018-08-03T21:34:45.904Z,62.32
2018-08-03T21:37:17.963Z,63.46
2018-08-03T21:39:50.105Z,64.03
2018-08-03T21:42:22.173Z,63.80
2018-08-03T21:44:54.344Z,65.72
2018-08-03T21:47:26.383Z,64.19
2018-08-03T21:49:58.487Z,65.44
2018-08-03T21:52:30.960Z,65.92
2018-08-03T21:55:03.131Z,66.08
2018-08-03T21:57:35.272Z,65.85
2018-08-03T22:00:09.493Z,64.96
2018-08-03T22:02:41.585Z,66.72
2018-08-03T22:05:13.731Z,68.18
2018-08-03T22:07:46.087Z,67.10
2018-08-03T22:10:18.200Z,67.20
2018-08-03T22:12:50.272Z,68.11
2018-08-03T22:15:22.376Z,67.13
2018-08-03T22:17:54.479Z,66.91
2018-08-03T22:20:26.540Z,67.57
2018-08-03T22:22:58.642Z,67.99
2018-08-03T22:25:30.706Z,68.31
2018-08-03T22:28:02.814Z,68.75
2018-08-03T22:30:34.904Z,68.61
2018-08-03T22:33:06.983Z,68.76
2018-08-03T22:35:39.085Z,69.33
2018-08-03T22:38:11.172Z,68.90
2018-08-03T22:40:43.283Z,69.44
2018-08-03T22:43:15.359Z,70.52
2018-08-03T22:45:53.095Z,69.55
2018-08-03T22:48:25.178Z,69.69
2018-08-03T22:50:57.271Z,70.42
2018-08-03T22:53:29.381Z,71.51
2018-08-03T22:56:01.483Z,70.26
2018-08-03T22:58:33.927Z,68.96
2018-08-03T23:01:06.459Z,70.06
2018-08-03T23:03:38.485Z,70.77
2018-08-03T23:06:10.543Z,70.82
2018-08-03T23:08:42.628Z,70.72
2018-08-03T23:11:14.708Z,72.01
2018-08-03T23:13:46.791Z,72.14
2018-08-03T23:16:18.922Z,70.90
2018-08-03T23:18:51.029Z,71.38
2018-08-03T23:21:23.151Z,71.75
2018-08-03T23:23:55.248Z,71.23
2018-08-03T23:26:27.384Z,71.48
2018-08-03T23:28:59.479Z,71.69
2018-08-03T23:31:31.621Z,72.56
2018-08-03T23:34:03.820Z,72.35
2018-08-03T23:36:35.908Z,73.07
2018-08-03T23:39:08.627Z,71.99
2018-08-03T23:41:40.724Z,72.90
2018-08-03T23:44:12.890Z,74.19
2018-08-03T23:46:45.024Z,73.53
2018-08-03T23:49:17.119Z,73.75
2018-08-03T23:51:49.296Z,73.14
2018-08-03T23:54:21.390Z,74.58
2018-08-03T23:56:53.477Z,74.34
2018-08-03T23:59:25.591Z,75.01
